createdAt,value
2023-05-12T00:01:59.868Z,4.20
2023-05-12T00:07:21.906Z,4.60
2023-05-12T00:12:44.611Z,4.37
2023-05-12T00:18:06.888Z,4.00
2023-05-12T00:23:29.393Z,4.10
2023-05-12T00:28:52.487Z,4.17
2023-05-12T00:34:14.834Z,4.10
2023-05-12T00:39:38.061Z,4.53
2023-05-12T00:45:00.709Z,4.13
2023-05-12T00:50:23.324Z,4.57
2023-05-12T00:55:45.356Z,4.40
2023-05-12T01:01:07.787Z,4.80
2023-05-12T01:06:49.338Z,4.60
2023-05-12T01:12:11.684Z,4.33
2023-05-12T01:17:35.666Z,4.53
2023-05-12T01:22:59.656Z,4.73
2023-05-12T01:28:23.829Z,4.37
2023-05-12T01:33:46.273Z,4.63
2023-05-12T01:39:08.951Z,4.27
2023-05-12T01:44:31.844Z,4.80
2023-05-12T01:49:54.611Z,4.13
2023-05-12T01:55:17.495Z,4.33
2023-05-12T02:00:45.108Z,4.27
2023-05-12T02:06:11.069Z,4.17
2023-05-12T02:11:33.342Z,4.60
2023-05-12T02:16:56.423Z,4.83
2023-05-12T02:22:20.974Z,4.23
2023-05-12T02:27:45.087Z,4.73
2023-05-12T02:33:07.936Z,4.60
2023-05-12T02:38:30.980Z,4.60
2023-05-12T02:43:53.769Z,5.17
2023-05-12T02:49:16.464Z,4.77
2023-05-12T02:54:38.785Z,4.23
2023-05-12T03:00:07.925Z,4.77
2023-05-12T03:05:33.575Z,4.50
2023-05-12T03:10:55.906Z,4.57
2023-05-12T03:16:19.760Z,5.20
2023-05-12T03:21:42.791Z,4.80
2023-05-12T03:27:05.765Z,4.90
2023-05-12T03:32:28.814Z,4.60
2023-05-12T03:37:51.016Z,4.73
2023-05-12T03:43:13.576Z,4.63
2023-05-12T03:48:35.896Z,4.80
2023-05-12T03:53:58.396Z,4.90
2023-05-12T03:59:20.477Z,5.00
2023-05-12T04:04:43.091Z,4.47
2023-05-12T04:10:05.770Z,5.17
2023-05-12T04:15:28.222Z,4.67
2023-05-12T04:20:50.654Z,5.27
2023-05-12T04:26:13.127Z,4.63
2023-05-12T04:31:36.572Z,4.97
2023-05-12T04:37:00.285Z,5.10
2023-05-12T04:42:22.967Z,5.53
2023-05-12T04:47:46.685Z,5.67
2023-05-12T04:53:10.954Z,5.40
2023-05-12T04:58:34.128Z,5.00
2023-05-12T05:03:56.601Z,4.43
2023-05-12T05:09:19.381Z,4.50
2023-05-12T05:14:41.763Z,5.27
2023-05-12T05:20:09.770Z,5.10
2023-05-12T05:25:34.364Z,4.67
2023-05-12T05:30:57.062Z,5.30
2023-05-12T05:36:19.993Z,5.07
2023-05-12T05:41:42.459Z,5.00
2023-05-12T05:47:05.245Z,4.73
2023-05-12T05:52:27.873Z,5.47
2023-05-12T05:57:50.201Z,5.20
2023-05-12T06:03:13.331Z,4.97
2023-05-12T06:08:35.918Z,4.97
2023-05-12T06:13:58.468Z,5.40
2023-05-12T06:19:22.237Z,5.13
2023-05-12T06:24:44.803Z,5.20
2023-05-12T06:30:07.720Z,5.20
2023-05-12T06:35:30.232Z,4.77
2023-05-12T06:40:52.453Z,4.73
2023-05-12T06:46:14.697Z,5.07
2023-05-12T06:51:38.322Z,4.83
2023-05-12T06:57:07.358Z,4.90
2023-05-12T07:02:30.879Z,4.73
2023-05-12T07:07:53.482Z,4.60
2023-05-12T07:13:15.976Z,4.60
2023-05-12T07:18:38.302Z,4.67
2023-05-12T07:24:06.847Z,3.87
2023-05-12T07:29:28.958Z,4.97
2023-05-12T07:34:51.621Z,4.67
2023-05-12T07:40:14.198Z,4.33
2023-05-12T07:45:36.720Z,4.90
2023-05-12T07:50:58.892Z,4.30
2023-05-12T07:56:21.881Z,3.97
2023-05-12T08:01:44.129Z,4.35
2023-05-12T08:07:06.435Z,3.80
2023-05-12T08:12:29.046Z,4.05
2023-05-12T08:17:52.116Z,4.03
2023-05-12T08:23:17.062Z,4.25
2023-05-12T08:28:39.646Z,4.20
2023-05-12T08:34:10.282Z,3.97
2023-05-12T08:39:34.018Z,3.60
2023-05-12T08:44:59.472Z,3.92
2023-05-12T08:50:22.856Z,3.67
2023-05-12T08:56:01.419Z,3.50
2023-05-12T09:01:30.995Z,3.35
2023-05-12T09:06:55.538Z,3.65
2023-05-12T09:12:19.726Z,3.30
2023-05-12T09:17:42.417Z,3.25
2023-05-12T09:23:19.088Z,3.80
2023-05-12T09:28:41.719Z,2.92
2023-05-12T09:34:08.680Z,3.38
2023-05-12T09:39:31.775Z,2.90
2023-05-12T09:44:53.843Z,2.97
2023-05-12T09:50:16.296Z,3.20
2023-05-12T09:55:38.740Z,3.45
2023-05-12T10:01:21.056Z,3.42
2023-05-12T10:06:43.504Z,2.78
2023-05-12T10:12:06.529Z,3.13
2023-05-12T10:17:29.897Z,3.25
2023-05-12T10:22:54.538Z,2.38
2023-05-12T10:28:17.507Z,2.92
2023-05-12T10:33:39.780Z,3.13
2023-05-12T10:39:06.388Z,3.25
2023-05-12T10:44:29.568Z,3.03
2023-05-12T10:49:58.509Z,3.17
2023-05-12T10:55:31.776Z,2.85
2023-05-12T11:00:55.561Z,2.67
2023-05-12T11:06:19.674Z,3.10
2023-05-12T11:11:45.516Z,3.53
2023-05-12T11:17:09.585Z,2.78
2023-05-12T11:22:32.314Z,3.13
2023-05-12T11:27:55.122Z,2.92
2023-05-12T11:33:21.164Z,2.90
2023-05-12T11:38:49.470Z,3.05
2023-05-12T11:44:22.364Z,2.83
2023-05-12T11:49:52.520Z,2.92
2023-05-12T11:55:21.942Z,2.88
2023-05-12T12:00:44.780Z,2.90
2023-05-12T12:06:10.864Z,2.60
2023-05-12T12:11:34.866Z,2.28
2023-05-12T12:16:57.311Z,2.70
2023-05-12T12:22:19.518Z,2.90
2023-05-12T12:27:42.225Z,2.65
2023-05-12T12:33:04.855Z,2.70
2023-05-12T12:38:27.007Z,2.75
2023-05-12T12:43:50.332Z,2.53
2023-05-12T12:49:13.333Z,2.53
2023-05-12T12:54:36.097Z,2.22
2023-05-12T12:59:58.464Z,2.28
2023-05-12T13:05:21.286Z,2.60
2023-05-12T13:10:44.219Z,3.05
2023-05-12T13:16:07.034Z,2.50
2023-05-12T13:21:29.406Z,2.47
2023-05-12T13:26:51.751Z,2.05
2023-05-12T13:32:15.274Z,2.38
2023-05-12T13:37:39.986Z,2.67
2023-05-12T13:43:02.382Z,2.72
2023-05-12T13:48:24.468Z,2.35
2023-05-12T13:53:46.932Z,2.47
2023-05-12T13:59:10.640Z,2.05
2023-05-12T14:04:33.224Z,2.60
2023-05-12T14:09:55.415Z,2.75
2023-05-12T14:20:43.404Z,2.60
2023-05-12T14:26:05.817Z,2.67
2023-05-12T14:31:28.443Z,2.53
2023-05-12T14:36:50.804Z,2.28
2023-05-12T14:42:13.529Z,2.30
2023-05-12T14:47:36.640Z,2.90
2023-05-12T14:52:58.832Z,2.38
2023-05-12T14:58:24.506Z,2.10
2023-05-12T15:03:48.902Z,2.50
2023-05-12T15:09:11.151Z,2.40
2023-05-12T15:14:33.522Z,2.60
2023-05-12T15:19:56.133Z,2.25
2023-05-12T15:25:18.770Z,2.10
2023-05-12T15:30:41.361Z,2.38
2023-05-12T15:36:05.190Z,2.70
2023-05-12T15:41:27.512Z,3.10
2023-05-12T15:46:49.768Z,2.50
2023-05-12T15:52:12.270Z,2.30
2023-05-12T15:57:34.525Z,2.60
2023-05-12T16:02:58.057Z,2.42
2023-05-12T16:08:20.508Z,2.38
2023-05-12T16:13:43.281Z,2.33
2023-05-12T16:19:05.825Z,2.55
2023-05-12T16:24:28.833Z,3.70
2023-05-12T16:29:53.413Z,2.70
2023-05-12T16:35:15.556Z,3.38
2023-05-12T16:40:37.986Z,2.72
2023-05-12T16:46:04.265Z,2.30
2023-05-12T16:51:30.525Z,2.80
2023-05-12T17:02:16.531Z,2.53
2023-05-12T17:07:39.038Z,2.28
2023-05-12T17:13:01.498Z,2.40
2023-05-12T17:18:24.912Z,2.70
2023-05-12T17:23:47.674Z,2.70
2023-05-12T17:29:10.128Z,2.72
2023-05-12T17:34:32.682Z,1.98
2023-05-12T17:39:55.132Z,2.40
2023-05-12T17:45:17.968Z,3.55
2023-05-12T17:50:40.597Z,3.00
2023-05-12T17:56:03.843Z,2.78
2023-05-12T18:01:25.968Z,2.78
2023-05-12T18:06:50.237Z,3.10
2023-05-12T18:12:13.187Z,2.58
2023-05-12T18:17:35.375Z,3.10
2023-05-12T18:22:57.908Z,2.58
2023-05-12T18:28:19.891Z,2.60
2023-05-12T18:33:42.385Z,3.17
2023-05-12T18:39:06.508Z,3.10
2023-05-12T18:44:28.653Z,2.90
2023-05-12T18:49:51.061Z,3.05
2023-05-12T18:55:13.445Z,2.97
2023-05-12T19:00:36.024Z,3.40
2023-05-12T19:05:58.775Z,2.75
2023-05-12T19:11:21.072Z,3.03
2023-05-12T19:16:46.478Z,3.72
2023-05-12T19:22:09.278Z,2.90
2023-05-12T19:27:31.923Z,3.10
2023-05-12T19:32:54.258Z,2.80
2023-05-12T19:38:18.600Z,2.67
2023-05-12T19:43:41.287Z,2.65
2023-05-12T19:49:03.634Z,3.00
2023-05-12T19:54:26.384Z,3.28
2023-05-12T19:59:49.780Z,3.03
2023-05-12T20:05:12.212Z,2.90
2023-05-12T20:10:34.982Z,3.00
2023-05-12T20:15:57.619Z,3.20
2023-05-12T20:21:20.066Z,3.22
2023-05-12T20:26:42.626Z,2.90
2023-05-12T20:32:05.198Z,3.13
2023-05-12T20:37:27.903Z,3.25
2023-05-12T20:42:50.344Z,3.10
2023-05-12T20:48:12.596Z,3.00
2023-05-12T20:53:36.586Z,3.13
2023-05-12T20:58:58.890Z,3.38
2023-05-12T21:04:21.449Z,3.30
2023-05-12T21:09:43.828Z,3.20
2023-05-12T21:15:09.300Z,3.33
2023-05-12T21:20:32.045Z,3.50
2023-05-12T21:25:54.773Z,3.70
2023-05-12T21:31:17.244Z,3.22
2023-05-12T21:36:40.306Z,2.78
2023-05-12T21:42:03.084Z,3.58
2023-05-12T21:47:25.450Z,3.10
2023-05-12T21:52:48.688Z,3.67
2023-05-12T21:58:11.386Z,3.20
2023-05-12T22:03:34.032Z,3.72
2023-05-12T22:08:56.267Z,3.63
2023-05-12T22:14:18.615Z,3.55
2023-05-12T22:19:41.060Z,4.15
2023-05-12T22:25:04.803Z,3.73
2023-05-12T22:30:27.021Z,3.78
2023-05-12T22:35:49.341Z,4.10
2023-05-12T22:41:11.888Z,3.40
2023-05-12T22:46:34.153Z,3.97
2023-05-12T22:51:56.987Z,3.90
2023-05-12T22:57:19.863Z,4.27
2023-05-12T23:02:42.412Z,3.50
2023-05-12T23:08:05.180Z,3.57
2023-05-12T23:13:27.547Z,3.87
2023-05-12T23:18:50.250Z,3.73
2023-05-12T23:24:12.569Z,3.63
2023-05-12T23:29:34.825Z,3.60
2023-05-12T23:34:57.426Z,4.10
2023-05-12T23:40:20.115Z,3.70
2023-05-12T23:45:42.880Z,3.43
2023-05-12T23:51:05.167Z,4.20
2023-05-12T23:56:27.511Z,4.10
